createdAt,value
2018-11-03T00:01:00.469Z,11.40
2018-11-03T00:03:29.212Z,11.50
2018-11-03T00:05:58.211Z,11.50
2018-11-03T00:08:26.993Z,11.60
2018-11-03T00:10:55.672Z,11.60
2018-11-03T00:13:24.663Z,11.60
2018-11-03T00:15:53.447Z,11.60
2018-11-03T00:18:22.155Z,11.50
2018-11-03T00:20:50.926Z,11.50
2018-11-03T00:23:19.736Z,11.50
2018-11-03T00:25:48.478Z,11.50
2018-11-03T00:28:17.203Z,11.50
2018-11-03T00:30:45.888Z,11.50
2018-11-03T00:33:14.991Z,11.50
2018-11-03T00:35:43.832Z,11.50
2018-11-03T00:38:12.560Z,11.50
2018-11-03T00:40:41.282Z,11.50
2018-11-03T00:43:10.033Z,11.40
2018-11-03T00:45:38.731Z,11.40
2018-11-03T00:48:07.351Z,11.50
2018-11-03T00:50:35.610Z,11.40
2018-11-03T00:53:04.127Z,11.20
2018-11-03T00:55:32.325Z,11.10
2018-11-03T00:58:00.543Z,11.00
2018-11-03T01:00:28.806Z,10.90
2018-11-03T01:02:57.082Z,11.00
2018-11-03T01:05:25.344Z,11.00
2018-11-03T01:07:53.621Z,11.00
2018-11-03T01:10:21.877Z,11.00
2018-11-03T01:12:50.103Z,10.90
2018-11-03T01:15:18.684Z,10.90
2018-11-03T01:17:47.061Z,11.00
2018-11-03T01:20:16.461Z,11.10
2018-11-03T01:22:45.307Z,11.20
2018-11-03T01:25:13.519Z,11.20
2018-11-03T01:27:41.794Z,11.30
2018-11-03T01:30:13.654Z,11.30
2018-11-03T01:32:42.029Z,11.20
2018-11-03T01:35:10.429Z,11.20
2018-11-03T01:37:39.285Z,11.10
2018-11-03T01:40:09.865Z,11.00
2018-11-03T01:42:38.479Z,10.90
2018-11-03T01:45:06.875Z,10.80
2018-11-03T01:47:35.521Z,10.70
2018-11-03T01:50:05.925Z,10.70
2018-11-03T01:52:34.717Z,10.60
2018-11-03T01:55:03.074Z,10.60
2018-11-03T01:57:31.356Z,10.50
2018-11-03T01:59:59.601Z,10.50
2018-11-03T02:02:28.017Z,10.60
2018-11-03T02:04:56.298Z,10.60
2018-11-03T02:07:24.534Z,10.60
2018-11-03T02:09:52.748Z,10.70
2018-11-03T02:12:21.001Z,10.70
2018-11-03T02:14:49.269Z,10.60
2018-11-03T02:17:17.549Z,10.50
2018-11-03T02:19:46.007Z,10.50
2018-11-03T02:22:14.220Z,10.60
2018-11-03T02:24:42.581Z,10.60
2018-11-03T02:27:10.845Z,10.60
2018-11-03T02:29:39.210Z,10.60
2018-11-03T02:32:07.444Z,10.50
2018-11-03T02:34:35.670Z,10.50
2018-11-03T02:37:04.206Z,10.60
2018-11-03T02:39:32.418Z,10.70
2018-11-03T02:42:00.648Z,10.80
2018-11-03T02:44:28.874Z,10.80
2018-11-03T02:46:57.303Z,10.80
2018-11-03T02:49:25.534Z,10.70
2018-11-03T02:51:53.745Z,10.80
2018-11-03T02:54:21.957Z,10.80
2018-11-03T02:56:50.205Z,10.90
2018-11-03T02:59:18.447Z,10.90
2018-11-03T03:01:46.661Z,11.00
2018-11-03T03:04:15.345Z,11.00
2018-11-03T03:06:43.625Z,11.10
2018-11-03T03:09:11.885Z,11.10
2018-11-03T03:11:40.150Z,11.00
2018-11-03T03:14:08.425Z,11.00
2018-11-03T03:16:36.689Z,11.10
2018-11-03T03:19:05.362Z,11.00
2018-11-03T03:21:33.589Z,11.10
2018-11-03T03:24:01.905Z,11.10
2018-11-03T03:26:30.141Z,11.20
2018-11-03T03:28:58.415Z,11.30
2018-11-03T03:31:26.646Z,11.30
2018-11-03T03:33:54.884Z,11.40
2018-11-03T03:36:23.134Z,11.40
2018-11-03T03:38:51.471Z,11.50
2018-11-03T03:41:19.701Z,11.50
2018-11-03T03:43:47.976Z,11.40
2018-11-03T03:46:16.225Z,11.40
2018-11-03T03:48:44.506Z,11.40
2018-11-03T03:51:12.757Z,11.40
2018-11-03T03:53:41.005Z,11.40
2018-11-03T03:56:09.233Z,11.40
2018-11-03T03:58:37.553Z,11.30
2018-11-03T04:01:05.821Z,11.20
2018-11-03T04:03:34.045Z,11.20
2018-11-03T04:06:02.334Z,11.30
2018-11-03T04:08:30.589Z,11.30
2018-11-03T04:10:58.825Z,11.40
2018-11-03T04:13:27.067Z,11.40
2018-11-03T04:15:55.572Z,11.40
2018-11-03T04:18:23.821Z,11.30
2018-11-03T04:20:52.102Z,11.20
2018-11-03T04:23:20.361Z,11.20
2018-11-03T04:25:48.659Z,11.10
2018-11-03T04:28:16.914Z,11.10
2018-11-03T04:30:45.173Z,11.20
2018-11-03T04:33:13.390Z,11.30
2018-11-03T04:35:41.629Z,11.30
2018-11-03T04:38:10.039Z,11.40
2018-11-03T04:40:38.254Z,11.40
2018-11-03T04:43:06.501Z,11.40
2018-11-03T04:45:34.759Z,11.40
2018-11-03T04:48:02.978Z,11.50
2018-11-03T04:50:31.209Z,11.50
2018-11-03T04:52:59.433Z,11.50
2018-11-03T04:55:27.708Z,11.40
2018-11-03T04:57:55.961Z,11.40
2018-11-03T05:00:24.201Z,11.40
2018-11-03T05:02:52.413Z,11.40
2018-11-03T05:05:20.704Z,11.40
2018-11-03T05:07:48.932Z,11.40
2018-11-03T05:10:17.178Z,11.40
2018-11-03T05:12:45.419Z,11.40
2018-11-03T05:15:13.714Z,11.40
2018-11-03T05:17:41.961Z,11.30
2018-11-03T05:20:10.218Z,11.40
2018-11-03T05:22:38.734Z,11.40
2018-11-03T05:25:06.986Z,11.40
2018-11-03T05:27:35.241Z,11.40
2018-11-03T05:30:03.589Z,11.30
2018-11-03T05:32:31.845Z,11.30
2018-11-03T05:35:00.115Z,11.30
2018-11-03T05:37:28.378Z,11.30
2018-11-03T05:39:56.638Z,11.30
2018-11-03T05:42:24.930Z,11.30
2018-11-03T05:44:53.193Z,11.30
2018-11-03T05:47:21.454Z,11.30
2018-11-03T05:49:49.663Z,11.30
2018-11-03T05:52:17.905Z,11.40
2018-11-03T05:54:46.132Z,11.40
2018-11-03T05:57:14.348Z,11.40
2018-11-03T05:59:42.594Z,11.40
2018-11-03T06:02:10.825Z,11.50
2018-11-03T06:04:39.097Z,11.50
2018-11-03T06:07:07.401Z,11.50
2018-11-03T06:09:35.642Z,11.50
2018-11-03T06:12:03.937Z,11.60
2018-11-03T06:14:32.217Z,11.50
2018-11-03T06:17:00.489Z,11.50
2018-11-03T06:19:28.941Z,11.50
2018-11-03T06:21:57.141Z,11.50
2018-11-03T06:24:25.652Z,11.40
2018-11-03T06:26:53.905Z,11.40
2018-11-03T06:29:22.161Z,11.50
2018-11-03T06:31:50.368Z,11.50
2018-11-03T06:34:18.614Z,11.50
2018-11-03T06:36:46.829Z,11.50
2018-11-03T06:39:15.055Z,11.50
2018-11-03T06:41:43.276Z,11.50
2018-11-03T06:44:11.506Z,11.60
2018-11-03T06:46:39.770Z,11.60
2018-11-03T06:49:13.477Z,11.60
2018-11-03T06:51:41.901Z,11.60
2018-11-03T06:54:10.133Z,11.70
2018-11-03T06:56:38.359Z,11.70
2018-11-03T06:59:06.934Z,11.70
2018-11-03T07:01:35.121Z,11.70
2018-11-03T07:04:03.405Z,11.70
2018-11-03T07:06:31.630Z,11.80
2018-11-03T07:08:59.899Z,11.80
2018-11-03T07:11:28.154Z,11.80
2018-11-03T07:13:56.400Z,11.80
2018-11-03T07:16:24.650Z,11.80
2018-11-03T07:18:53.064Z,11.80
2018-11-03T07:21:21.312Z,11.80
2018-11-03T07:23:49.867Z,11.90
2018-11-03T07:26:18.100Z,11.80
2018-11-03T07:28:46.366Z,11.80
2018-11-03T07:31:14.621Z,11.80
2018-11-03T07:33:43.080Z,11.80
2018-11-03T07:36:11.761Z,11.90
2018-11-03T07:38:39.997Z,11.90
2018-11-03T07:41:08.450Z,12.00
2018-11-03T07:43:36.545Z,12.10
2018-11-03T07:46:05.290Z,12.10
2018-11-03T07:48:33.616Z,12.10
2018-11-03T07:51:02.035Z,12.10
2018-11-03T07:53:30.417Z,12.10
2018-11-03T07:55:58.634Z,12.10
2018-11-03T07:58:26.902Z,12.10
2018-11-03T08:00:55.169Z,12.00
2018-11-03T08:03:23.457Z,12.10
2018-11-03T08:05:51.726Z,12.10
2018-11-03T08:08:20.281Z,12.20
2018-11-03T08:10:48.532Z,12.20
2018-11-03T08:13:16.814Z,12.20
2018-11-03T08:15:45.266Z,12.10
2018-11-03T08:18:13.383Z,12.20
2018-11-03T08:20:41.622Z,12.30
2018-11-03T08:23:10.039Z,12.30
2018-11-03T08:25:38.311Z,12.20
2018-11-03T08:28:06.604Z,12.20
2018-11-03T08:30:35.078Z,12.30
2018-11-03T08:33:03.304Z,12.40
2018-11-03T08:35:31.520Z,12.40
2018-11-03T08:37:59.737Z,12.60
2018-11-03T08:40:27.938Z,12.80
2018-11-03T08:42:56.168Z,12.90
2018-11-03T08:45:24.358Z,13.10
2018-11-03T08:47:52.586Z,13.10
2018-11-03T08:50:20.773Z,13.20
2018-11-03T08:52:49.250Z,13.30
2018-11-03T08:55:17.453Z,13.50
2018-11-03T08:57:45.805Z,13.60
2018-11-03T09:00:15.102Z,13.80
2018-11-03T09:02:43.974Z,13.90
2018-11-03T09:05:12.649Z,14.00
2018-11-03T09:07:41.146Z,14.10
2018-11-03T09:10:11.517Z,14.20
2018-11-03T09:12:39.979Z,14.30
2018-11-03T09:15:10.049Z,14.30
2018-11-03T09:17:38.918Z,14.30
2018-11-03T09:20:08.029Z,14.40
2018-11-03T09:22:37.088Z,14.60
2018-11-03T09:25:06.829Z,14.70
2018-11-03T09:27:35.073Z,14.70
2018-11-03T09:30:03.349Z,14.90
2018-11-03T09:32:31.569Z,14.90
2018-11-03T09:35:00.096Z,15.10
2018-11-03T09:37:28.471Z,15.10
2018-11-03T09:39:56.698Z,15.20
2018-11-03T09:42:24.954Z,15.30
2018-11-03T09:44:54.008Z,15.50
2018-11-03T09:47:22.234Z,15.60
2018-11-03T09:49:50.570Z,15.70
2018-11-03T09:52:18.793Z,15.80
2018-11-03T09:54:47.069Z,15.90
2018-11-03T09:57:15.351Z,15.80
2018-11-03T09:59:43.588Z,15.90
2018-11-03T10:02:11.891Z,15.90
2018-11-03T10:04:40.167Z,15.80
2018-11-03T10:07:08.622Z,15.80
2018-11-03T10:09:36.833Z,15.90
2018-11-03T10:12:05.341Z,16.00
2018-11-03T10:14:33.575Z,16.20
2018-11-03T10:17:01.871Z,16.20
2018-11-03T10:19:30.109Z,16.30
2018-11-03T10:21:58.424Z,16.40
2018-11-03T10:24:26.606Z,16.40
2018-11-03T10:26:54.874Z,16.40
2018-11-03T10:29:23.135Z,16.40
2018-11-03T10:31:51.385Z,16.50
2018-11-03T10:34:19.611Z,16.50
2018-11-03T10:36:47.911Z,16.60
2018-11-03T10:39:16.287Z,16.50
2018-11-03T10:41:44.613Z,16.60
2018-11-03T10:44:12.921Z,16.70
2018-11-03T10:46:41.235Z,16.80
2018-11-03T10:49:09.715Z,17.00
2018-11-03T10:51:38.026Z,17.00
2018-11-03T10:54:06.538Z,17.00
2018-11-03T10:56:34.789Z,16.90
2018-11-03T10:59:03.082Z,16.90
2018-11-03T11:01:36.785Z,16.90
2018-11-03T11:04:10.257Z,16.80
2018-11-03T11:06:43.841Z,16.80
2018-11-03T11:09:17.375Z,16.80
2018-11-03T11:11:51.069Z,16.80
2018-11-03T11:14:19.961Z,16.70
2018-11-03T11:16:48.192Z,16.90
2018-11-03T11:19:16.437Z,16.90
2018-11-03T11:21:44.766Z,16.90
2018-11-03T11:24:13.130Z,16.90
2018-11-03T11:26:41.393Z,16.70
2018-11-03T11:29:09.791Z,16.40
2018-11-03T11:31:38.109Z,16.40
2018-11-03T11:34:06.549Z,16.50
2018-11-03T11:36:34.990Z,16.50
2018-11-03T11:39:03.931Z,16.60
2018-11-03T11:41:32.210Z,16.70
2018-11-03T11:44:00.431Z,16.70
2018-11-03T11:46:28.699Z,16.60
2018-11-03T11:48:57.035Z,16.40
2018-11-03T11:51:25.285Z,16.20
2018-11-03T11:53:53.557Z,16.10
2018-11-03T11:56:21.871Z,15.80
2018-11-03T11:58:50.091Z,15.50
2018-11-03T12:01:18.411Z,15.30
2018-11-03T12:03:46.697Z,15.20
2018-11-03T12:06:15.170Z,15.20
2018-11-03T12:08:43.364Z,15.10
2018-11-03T12:11:11.930Z,15.00
2018-11-03T12:13:40.179Z,14.90
2018-11-03T12:16:08.468Z,14.90
2018-11-03T12:18:36.691Z,14.90
2018-11-03T12:21:04.972Z,14.90
2018-11-03T12:23:33.417Z,15.00
2018-11-03T12:26:01.900Z,15.10
2018-11-03T12:28:30.238Z,15.20
2018-11-03T12:30:58.865Z,15.30
2018-11-03T12:33:27.088Z,15.30
2018-11-03T12:35:55.300Z,15.30
2018-11-03T12:38:23.830Z,15.20
2018-11-03T12:40:52.155Z,15.20
2018-11-03T12:43:20.330Z,15.20
2018-11-03T12:45:48.527Z,15.40
2018-11-03T12:48:17.084Z,15.50
2018-11-03T12:50:46.005Z,15.50
2018-11-03T12:53:14.226Z,15.50
2018-11-03T12:55:42.469Z,15.40
2018-11-03T12:58:10.757Z,15.40
2018-11-03T13:00:39.335Z,15.30
2018-11-03T13:03:07.951Z,15.10
2018-11-03T13:05:36.151Z,15.00
2018-11-03T13:08:04.394Z,15.00
2018-11-03T13:10:32.715Z,15.00
2018-11-03T13:13:01.094Z,15.00
2018-11-03T13:15:29.381Z,15.00
2018-11-03T13:17:57.597Z,14.90
2018-11-03T13:20:25.923Z,14.90
2018-11-03T13:22:54.314Z,15.00
2018-11-03T13:25:22.406Z,14.90
2018-11-03T13:27:50.679Z,14.90
2018-11-03T13:30:18.963Z,14.80
2018-11-03T13:32:47.211Z,14.70
2018-11-03T13:35:15.485Z,14.60
2018-11-03T13:37:43.736Z,14.50
2018-11-03T13:40:13.240Z,14.50
2018-11-03T13:42:41.948Z,14.60
2018-11-03T13:45:10.738Z,14.70
2018-11-03T13:47:39.555Z,14.70
2018-11-03T13:50:11.279Z,14.70
2018-11-03T13:52:39.813Z,14.80
2018-11-03T13:55:08.626Z,14.90
2018-11-03T13:57:36.881Z,15.00
2018-11-03T14:00:06.386Z,15.10
2018-11-03T14:02:34.919Z,15.00
2018-11-03T14:05:03.196Z,15.00
2018-11-03T14:07:31.430Z,14.90
2018-11-03T14:09:59.851Z,14.80
2018-11-03T14:12:28.083Z,14.70
2018-11-03T14:14:56.485Z,14.70
2018-11-03T14:17:24.713Z,14.60
2018-11-03T14:19:52.977Z,14.60
2018-11-03T14:22:21.237Z,14.60
2018-11-03T14:24:49.777Z,14.60
2018-11-03T14:27:18.096Z,14.50
2018-11-03T14:29:46.297Z,14.50
2018-11-03T14:32:14.553Z,14.40
2018-11-03T14:34:42.744Z,14.50
2018-11-03T14:37:10.961Z,14.50
2018-11-03T14:39:39.176Z,14.40
2018-11-03T14:42:07.657Z,14.30
2018-11-03T14:44:35.933Z,14.30
2018-11-03T14:47:04.121Z,14.30
2018-11-03T14:49:32.333Z,14.30
2018-11-03T14:52:00.533Z,14.30
2018-11-03T14:54:28.754Z,14.30
2018-11-03T14:56:56.993Z,14.40
2018-11-03T14:59:25.279Z,14.40
2018-11-03T15:01:53.493Z,14.40
2018-11-03T15:04:21.773Z,14.40
2018-11-03T15:06:50.069Z,14.20
2018-11-03T15:09:18.333Z,14.10
2018-11-03T15:11:46.562Z,14.00
2018-11-03T15:14:14.890Z,13.90
2018-11-03T15:16:43.301Z,13.90
2018-11-03T15:19:11.529Z,13.90
2018-11-03T15:21:39.924Z,13.80
2018-11-03T15:24:08.173Z,13.80
2018-11-03T15:26:36.501Z,13.80
2018-11-03T15:29:04.877Z,13.90
2018-11-03T15:31:33.108Z,13.90
2018-11-03T15:34:01.321Z,13.90
2018-11-03T15:36:29.582Z,13.80
2018-11-03T15:38:57.908Z,13.80
2018-11-03T15:41:26.197Z,13.90
2018-11-03T15:43:54.389Z,13.80
2018-11-03T15:46:22.742Z,13.60
2018-11-03T15:48:51.119Z,13.50
2018-11-03T15:51:19.497Z,13.50
2018-11-03T15:53:47.910Z,13.50
2018-11-03T15:56:16.431Z,13.40
2018-11-03T15:58:44.669Z,13.30
2018-11-03T16:01:12.926Z,13.30
2018-11-03T16:03:41.126Z,13.30
2018-11-03T16:06:09.394Z,13.30
2018-11-03T16:08:37.658Z,13.30
2018-11-03T16:11:05.966Z,13.20
2018-11-03T16:13:34.384Z,13.20
2018-11-03T16:16:02.609Z,13.20
2018-11-03T16:18:30.877Z,13.10
2018-11-03T16:20:59.078Z,13.00
2018-11-03T16:23:27.551Z,13.00
2018-11-03T16:25:55.803Z,12.90
2018-11-03T16:28:24.055Z,13.00
2018-11-03T16:30:52.245Z,12.90
2018-11-03T16:33:20.513Z,12.70
2018-11-03T16:35:48.721Z,12.70
2018-11-03T16:38:17.520Z,12.70
2018-11-03T16:40:45.638Z,12.70
2018-11-03T16:43:13.837Z,12.70
2018-11-03T16:45:42.139Z,12.70
2018-11-03T16:48:10.291Z,12.70
2018-11-03T16:50:38.517Z,12.60
2018-11-03T16:53:06.715Z,12.50
2018-11-03T16:55:35.218Z,12.60
2018-11-03T16:58:03.571Z,12.60
2018-11-03T17:00:31.985Z,12.80
2018-11-03T17:03:00.329Z,12.80
2018-11-03T17:05:28.549Z,12.80
2018-11-03T17:07:56.741Z,12.80
2018-11-03T17:10:24.966Z,12.70
2018-11-03T17:12:53.413Z,12.70
2018-11-03T17:15:21.650Z,12.70
2018-11-03T17:17:49.910Z,12.70
2018-11-03T17:20:18.134Z,12.80
2018-11-03T17:22:46.493Z,12.70
2018-11-03T17:25:14.796Z,12.70
2018-11-03T17:27:43.074Z,12.70
2018-11-03T17:30:13.388Z,12.80
2018-11-03T17:32:41.961Z,12.80
2018-11-03T17:35:10.536Z,12.80
2018-11-03T17:37:38.811Z,12.80
2018-11-03T17:40:07.917Z,12.80
2018-11-03T17:42:36.191Z,12.80
2018-11-03T17:45:05.397Z,12.80
2018-11-03T17:47:33.916Z,12.80
2018-11-03T17:50:02.218Z,12.80
2018-11-03T17:52:30.434Z,12.80
2018-11-03T17:54:58.790Z,12.80
2018-11-03T17:57:27.010Z,12.80
2018-11-03T17:59:55.412Z,12.90
2018-11-03T18:02:23.605Z,12.90
2018-11-03T18:04:52.167Z,12.90
2018-11-03T18:07:20.367Z,12.90
2018-11-03T18:09:48.571Z,12.90
2018-11-03T18:12:16.791Z,12.90
2018-11-03T18:14:44.998Z,12.90
2018-11-03T18:17:13.262Z,12.90
2018-11-03T18:19:41.571Z,12.90
2018-11-03T18:22:09.761Z,12.80
2018-11-03T18:24:38.025Z,12.70
2018-11-03T18:27:06.270Z,12.70
2018-11-03T18:29:34.603Z,12.60
2018-11-03T18:32:02.825Z,12.70
2018-11-03T18:34:31.100Z,12.70
2018-11-03T18:36:59.314Z,12.70
2018-11-03T18:39:27.605Z,12.70
2018-11-03T18:41:55.832Z,12.70
2018-11-03T18:44:24.077Z,12.70
2018-11-03T18:46:52.273Z,12.70
2018-11-03T18:49:20.505Z,12.70
2018-11-03T18:51:48.744Z,12.60
2018-11-03T18:54:17.178Z,12.70
2018-11-03T18:56:45.395Z,12.70
2018-11-03T18:59:13.689Z,12.70
2018-11-03T19:01:41.945Z,12.60
2018-11-03T19:04:10.187Z,12.60
2018-11-03T19:06:38.488Z,12.70
2018-11-03T19:09:07.610Z,12.60
2018-11-03T19:11:35.906Z,12.50
2018-11-03T19:14:04.425Z,12.60
2018-11-03T19:16:32.648Z,12.60
2018-11-03T19:19:01.027Z,12.60
2018-11-03T19:21:29.485Z,12.70
2018-11-03T19:23:58.000Z,12.70
2018-11-03T19:26:26.261Z,12.70
2018-11-03T19:28:54.655Z,12.70
2018-11-03T19:31:23.103Z,12.80
2018-11-03T19:33:51.590Z,12.80
2018-11-03T19:36:20.865Z,12.80
2018-11-03T19:38:49.359Z,12.80
2018-11-03T19:41:17.929Z,12.80
2018-11-03T19:43:46.454Z,12.70
2018-11-03T19:46:15.087Z,12.70
2018-11-03T19:48:43.568Z,12.80
2018-11-03T19:51:12.090Z,12.70
2018-11-03T19:53:40.575Z,12.80
2018-11-03T19:56:09.063Z,12.80
2018-11-03T19:58:37.639Z,12.70
2018-11-03T20:01:06.191Z,12.70
2018-11-03T20:03:34.684Z,12.70
2018-11-03T20:06:03.339Z,12.80
2018-11-03T20:08:31.850Z,12.80
2018-11-03T20:11:00.481Z,12.80
2018-11-03T20:13:29.014Z,12.80
2018-11-03T20:15:57.513Z,12.80
2018-11-03T20:18:26.176Z,12.80
2018-11-03T20:20:54.974Z,12.80
2018-11-03T20:23:23.445Z,12.80
2018-11-03T20:25:52.233Z,12.80
2018-11-03T20:28:20.924Z,12.80
2018-11-03T20:30:49.506Z,12.70
2018-11-03T20:33:18.009Z,12.70
2018-11-03T20:35:47.406Z,12.70
2018-11-03T20:38:15.874Z,12.70
2018-11-03T20:40:44.334Z,12.70
2018-11-03T20:43:13.105Z,12.50
2018-11-03T20:45:41.636Z,12.50
2018-11-03T20:48:10.105Z,12.50
2018-11-03T20:50:38.569Z,12.40
2018-11-03T20:53:07.130Z,12.30
2018-11-03T20:55:35.597Z,12.30
2018-11-03T20:58:04.116Z,12.20
2018-11-03T21:00:32.558Z,12.30
2018-11-03T21:03:01.082Z,12.30
2018-11-03T21:05:30.902Z,12.40
2018-11-03T21:07:59.424Z,12.40
2018-11-03T21:10:27.894Z,12.50
2018-11-03T21:12:56.442Z,12.50
2018-11-03T21:15:24.957Z,12.50
2018-11-03T21:19:22.863Z,12.50
2018-11-03T21:21:51.190Z,12.50
2018-11-03T21:24:19.835Z,12.40
2018-11-03T21:26:48.265Z,12.40
2018-11-03T21:29:16.638Z,12.40
2018-11-03T21:31:45.029Z,12.30
2018-11-03T21:34:13.319Z,12.30
2018-11-03T21:36:41.760Z,12.30
2018-11-03T21:39:11.342Z,12.30
2018-11-03T21:41:39.720Z,12.30
2018-11-03T21:44:08.536Z,12.30
2018-11-03T21:46:36.932Z,12.20
2018-11-03T21:49:05.370Z,12.10
2018-11-03T21:51:33.621Z,12.10
2018-11-03T21:54:01.858Z,12.10
2018-11-03T21:56:30.339Z,12.20
2018-11-03T21:58:58.553Z,12.20
2018-11-03T22:01:26.829Z,12.20
2018-11-03T22:03:55.076Z,12.20
2018-11-03T22:06:23.300Z,12.20
2018-11-03T22:08:51.533Z,12.20
2018-11-03T22:11:19.734Z,12.10
2018-11-03T22:13:47.986Z,12.20
2018-11-03T22:16:16.233Z,12.20
2018-11-03T22:18:44.457Z,12.30
2018-11-03T22:21:12.713Z,12.40
2018-11-03T22:23:40.990Z,12.50
2018-11-03T22:26:09.210Z,12.50
2018-11-03T22:28:37.469Z,12.40
2018-11-03T22:31:05.734Z,12.30
2018-11-03T22:33:34.015Z,12.30
2018-11-03T22:36:02.509Z,12.20
2018-11-03T22:38:31.026Z,12.20
2018-11-03T22:40:59.247Z,12.30
2018-11-03T22:43:27.481Z,12.40
2018-11-03T22:45:55.674Z,12.40
2018-11-03T22:48:23.894Z,12.30
2018-11-03T22:50:52.163Z,12.30
2018-11-03T22:53:20.305Z,12.30
2018-11-03T22:55:48.781Z,12.20
2018-11-03T22:58:16.985Z,12.10
2018-11-03T23:00:50.446Z,12.20
2018-11-03T23:03:18.669Z,12.20
2018-11-03T23:05:47.066Z,12.30
2018-11-03T23:08:15.316Z,12.30
2018-11-03T23:10:43.643Z,12.30
2018-11-03T23:13:11.966Z,12.40
2018-11-03T23:15:40.137Z,12.40
2018-11-03T23:18:08.513Z,12.40
2018-11-03T23:20:36.757Z,12.40
2018-11-03T23:23:05.007Z,12.40
2018-11-03T23:25:33.480Z,12.30
2018-11-03T23:28:01.713Z,12.30
2018-11-03T23:30:29.937Z,12.40
2018-11-03T23:32:58.162Z,12.40
2018-11-03T23:35:26.385Z,12.40
2018-11-03T23:37:54.695Z,12.40
2018-11-03T23:40:23.074Z,12.40
2018-11-03T23:42:51.278Z,12.40
2018-11-03T23:45:19.527Z,12.30
2018-11-03T23:47:47.730Z,12.30
2018-11-03T23:50:15.988Z,12.20
2018-11-03T23:52:47.256Z,12.10
2018-11-03T23:55:15.498Z,12.10
2018-11-03T23:57:43.782Z,12.10
